Terminal Aerodrome Forecast
Issued by NWS

Home | Current Version | Previous Version | Text Only | Print | Product List | Glossary On
Versions: 1 2 3 4 5 6 7 8 9 10 11 12 13 14 15 16 17 18
000
FTUS44 KBMX 231700
TAFANB
TAF
KANB 231740Z 2318/2418 31006KT P6SM SCT040
     FM232000 34008KT P6SM VCSH SCT050
     FM240000 00000KT P6SM SCT200
      TEMPO 2410/2412 4SM BR
     FM241400 04005KT P6SM SCT050=

USA.gov is the U.S. government's official web portal to all federal, state and local government web resources and services.